sensor_id;sensor_type;location;lat;lon;timestamp;P1;durP1;ratioP1;P2;durP2;ratioP2
4921;SDS011;16625;53.624;10.106;2024-03-22T00:01:52;18.93;;;11.80;;
4921;SDS011;16625;53.624;10.106;2024-03-22T00:04:19;20.40;;;11.57;;
4921;SDS011;16625;53.624;10.106;2024-03-22T00:06:46;24.37;;;12.80;;
4921;SDS011;16625;53.624;10.106;2024-03-22T00:09:14;21.37;;;13.23;;
4921;SDS011;16625;53.624;10.106;2024-03-22T00:11:41;21.83;;;12.43;;
4921;SDS011;16625;53.624;10.106;2024-03-22T00:14:08;21.83;;;11.77;;
4921;SDS011;16625;53.624;10.106;2024-03-22T00:16:35;26.20;;;13.20;;
4921;SDS011;16625;53.624;10.106;2024-03-22T00:19:04;21.13;;;12.53;;
4921;SDS011;16625;53.624;10.106;2024-03-22T00:21:30;25.20;;;13.67;;
4921;SDS011;16625;53.624;10.106;2024-03-22T00:23:57;25.83;;;13.00;;
4921;SDS011;16625;53.624;10.106;2024-03-22T00:26:23;22.30;;;12.37;;
4921;SDS011;16625;53.624;10.106;2024-03-22T00:28:51;24.13;;;12.90;;
4921;SDS011;16625;53.624;10.106;2024-03-22T00:31:16;23.27;;;13.93;;
4921;SDS011;16625;53.624;10.106;2024-03-22T00:33:43;25.50;;;14.57;;
4921;SDS011;16625;53.624;10.106;2024-03-22T00:36:11;27.00;;;12.40;;
4921;SDS011;16625;53.624;10.106;2024-03-22T00:38:38;31.40;;;13.60;;
4921;SDS011;16625;53.624;10.106;2024-03-22T00:41:04;23.63;;;14.13;;
4921;SDS011;16625;53.624;10.106;2024-03-22T00:43:31;29.83;;;14.60;;
4921;SDS011;16625;53.624;10.106;2024-03-22T00:45:57;26.23;;;14.57;;
4921;SDS011;16625;53.624;10.106;2024-03-22T00:48:25;30.73;;;14.37;;
4921;SDS011;16625;53.624;10.106;2024-03-22T00:50:51;23.83;;;12.27;;
4921;SDS011;16625;53.624;10.106;2024-03-22T00:53:20;29.93;;;14.43;;
4921;SDS011;16625;53.624;10.106;2024-03-22T00:55:46;26.87;;;14.53;;
4921;SDS011;16625;53.624;10.106;2024-03-22T00:58:16;30.67;;;13.20;;
4921;SDS011;16625;53.624;10.106;2024-03-22T01:00:43;30.43;;;13.20;;
4921;SDS011;16625;53.624;10.106;2024-03-22T01:03:10;19.30;;;13.43;;
4921;SDS011;16625;53.624;10.106;2024-03-22T01:05:36;23.10;;;12.53;;
4921;SDS011;16625;53.624;10.106;2024-03-22T01:08:03;28.40;;;14.33;;
4921;SDS011;16625;53.624;10.106;2024-03-22T01:10:32;24.63;;;13.40;;
4921;SDS011;16625;53.624;10.106;2024-03-22T01:12:59;23.53;;;12.43;;
4921;SDS011;16625;53.624;10.106;2024-03-22T01:15:25;27.33;;;14.27;;
4921;SDS011;16625;53.624;10.106;2024-03-22T01:17:52;23.77;;;14.10;;
4921;SDS011;16625;53.624;10.106;2024-03-22T01:20:19;29.53;;;15.23;;
4921;SDS011;16625;53.624;10.106;2024-03-22T01:22:47;31.33;;;15.93;;
4921;SDS011;16625;53.624;10.106;2024-03-22T01:25:14;24.23;;;14.50;;
4921;SDS011;16625;53.624;10.106;2024-03-22T01:27:43;29.37;;;17.47;;
4921;SDS011;16625;53.624;10.106;2024-03-22T01:30:10;23.73;;;13.60;;
4921;SDS011;16625;53.624;10.106;2024-03-22T01:32:37;25.10;;;14.70;;
4921;SDS011;16625;53.624;10.106;2024-03-22T01:35:03;24.67;;;13.70;;
4921;SDS011;16625;53.624;10.106;2024-03-22T01:37:31;29.83;;;14.90;;
4921;SDS011;16625;53.624;10.106;2024-03-22T01:39:58;25.50;;;14.80;;
4921;SDS011;16625;53.624;10.106;2024-03-22T01:42:27;27.47;;;14.50;;
4921;SDS011;16625;53.624;10.106;2024-03-22T01:44:54;35.97;;;14.90;;
4921;SDS011;16625;53.624;10.106;2024-03-22T01:47:22;21.87;;;13.37;;
4921;SDS011;16625;53.624;10.106;2024-03-22T01:49:50;27.90;;;15.90;;
4921;SDS011;16625;53.624;10.106;2024-03-22T01:52:20;26.53;;;16.10;;
4921;SDS011;16625;53.624;10.106;2024-03-22T01:54:46;26.40;;;14.50;;
4921;SDS011;16625;53.624;10.106;2024-03-22T01:57:15;28.30;;;15.27;;
4921;SDS011;16625;53.624;10.106;2024-03-22T01:59:41;26.27;;;14.80;;
4921;SDS011;16625;53.624;10.106;2024-03-22T02:02:09;25.70;;;15.70;;
4921;SDS011;16625;53.624;10.106;2024-03-22T02:04:36;28.83;;;14.43;;
4921;SDS011;16625;53.624;10.106;2024-03-22T02:07:03;26.77;;;15.87;;
4921;SDS011;16625;53.624;10.106;2024-03-22T02:09:30;28.90;;;15.67;;
4921;SDS011;16625;53.624;10.106;2024-03-22T02:11:57;28.97;;;15.60;;
4921;SDS011;16625;53.624;10.106;2024-03-22T02:14:23;29.53;;;15.87;;
4921;SDS011;16625;53.624;10.106;2024-03-22T02:16:51;29.47;;;15.87;;
4921;SDS011;16625;53.624;10.106;2024-03-22T02:19:19;24.07;;;15.17;;
4921;SDS011;16625;53.624;10.106;2024-03-22T02:21:45;24.20;;;14.10;;
4921;SDS011;16625;53.624;10.106;2024-03-22T02:24:13;27.33;;;15.70;;
4921;SDS011;16625;53.624;10.106;2024-03-22T02:26:42;33.87;;;15.20;;
4921;SDS011;16625;53.624;10.106;2024-03-22T02:29:08;29.23;;;17.70;;
4921;SDS011;16625;53.624;10.106;2024-03-22T02:34:56;32.10;;;17.13;;
4921;SDS011;16625;53.624;10.106;2024-03-22T02:37:22;33.53;;;18.27;;
4921;SDS011;16625;53.624;10.106;2024-03-22T02:39:50;32.00;;;16.20;;
4921;SDS011;16625;53.624;10.106;2024-03-22T02:42:19;33.80;;;17.20;;
4921;SDS011;16625;53.624;10.106;2024-03-22T02:44:47;21.50;;;14.40;;
4921;SDS011;16625;53.624;10.106;2024-03-22T02:47:13;28.97;;;15.23;;
4921;SDS011;16625;53.624;10.106;2024-03-22T02:49:40;30.70;;;18.40;;
4921;SDS011;16625;53.624;10.106;2024-03-22T02:52:07;36.97;;;18.83;;
4921;SDS011;16625;53.624;10.106;2024-03-22T02:54:34;37.93;;;18.17;;
4921;SDS011;16625;53.624;10.106;2024-03-22T02:57:02;36.20;;;18.83;;
4921;SDS011;16625;53.624;10.106;2024-03-22T02:59:29;34.83;;;18.50;;
4921;SDS011;16625;53.624;10.106;2024-03-22T03:01:56;35.43;;;20.27;;
4921;SDS011;16625;53.624;10.106;2024-03-22T03:04:23;39.80;;;20.50;;
4921;SDS011;16625;53.624;10.106;2024-03-22T03:06:48;38.30;;;21.77;;
4921;SDS011;16625;53.624;10.106;2024-03-22T03:09:15;41.20;;;21.60;;
4921;SDS011;16625;53.624;10.106;2024-03-22T03:11:42;36.00;;;20.10;;
4921;SDS011;16625;53.624;10.106;2024-03-22T03:14:11;36.47;;;20.77;;
4921;SDS011;16625;53.624;10.106;2024-03-22T03:16:37;35.47;;;19.97;;
4921;SDS011;16625;53.624;10.106;2024-03-22T03:19:04;34.13;;;18.87;;
4921;SDS011;16625;53.624;10.106;2024-03-22T03:21:30;34.93;;;21.80;;
4921;SDS011;16625;53.624;10.106;2024-03-22T03:23:57;41.50;;;22.97;;
4921;SDS011;16625;53.624;10.106;2024-03-22T03:26:23;46.03;;;25.13;;
4921;SDS011;16625;53.624;10.106;2024-03-22T03:28:50;35.37;;;21.87;;
4921;SDS011;16625;53.624;10.106;2024-03-22T03:31:17;42.70;;;24.03;;
4921;SDS011;16625;53.624;10.106;2024-03-22T03:33:45;39.90;;;22.80;;
4921;SDS011;16625;53.624;10.106;2024-03-22T03:36:10;41.77;;;22.80;;
4921;SDS011;16625;53.624;10.106;2024-03-22T03:38:37;38.83;;;19.50;;
4921;SDS011;16625;53.624;10.106;2024-03-22T03:41:03;39.20;;;21.23;;
4921;SDS011;16625;53.624;10.106;2024-03-22T03:43:30;42.03;;;24.60;;
4921;SDS011;16625;53.624;10.106;2024-03-22T03:45:56;41.27;;;22.20;;
4921;SDS011;16625;53.624;10.106;2024-03-22T03:48:26;46.77;;;23.70;;
4921;SDS011;16625;53.624;10.106;2024-03-22T03:50:52;45.40;;;23.70;;
4921;SDS011;16625;53.624;10.106;2024-03-22T03:53:20;48.43;;;23.80;;
4921;SDS011;16625;53.624;10.106;2024-03-22T03:55:46;44.87;;;25.03;;
4921;SDS011;16625;53.624;10.106;2024-03-22T03:58:13;45.20;;;24.40;;
4921;SDS011;16625;53.624;10.106;2024-03-22T04:00:42;50.23;;;24.20;;
4921;SDS011;16625;53.624;10.106;2024-03-22T04:03:09;47.13;;;23.13;;
4921;SDS011;16625;53.624;10.106;2024-03-22T04:05:37;41.97;;;22.90;;
4921;SDS011;16625;53.624;10.106;2024-03-22T04:08:04;62.07;;;28.03;;
4921;SDS011;16625;53.624;10.106;2024-03-22T04:10:31;46.07;;;25.90;;
4921;SDS011;16625;53.624;10.106;2024-03-22T04:12:59;51.23;;;28.53;;
4921;SDS011;16625;53.624;10.106;2024-03-22T04:15:26;49.57;;;25.60;;
4921;SDS011;16625;53.624;10.106;2024-03-22T04:17:51;56.73;;;29.00;;
4921;SDS011;16625;53.624;10.106;2024-03-22T04:20:19;50.87;;;28.47;;
4921;SDS011;16625;53.624;10.106;2024-03-22T04:22:46;51.00;;;24.80;;
4921;SDS011;16625;53.624;10.106;2024-03-22T04:25:14;54.50;;;29.03;;
4921;SDS011;16625;53.624;10.106;2024-03-22T04:27:40;44.77;;;25.47;;
4921;SDS011;16625;53.624;10.106;2024-03-22T04:30:10;50.93;;;23.47;;
4921;SDS011;16625;53.624;10.106;2024-03-22T04:32:37;62.10;;;30.53;;
4921;SDS011;16625;53.624;10.106;2024-03-22T04:35:04;53.17;;;28.70;;
4921;SDS011;16625;53.624;10.106;2024-03-22T04:37:30;46.00;;;23.70;;
4921;SDS011;16625;53.624;10.106;2024-03-22T04:39:58;50.53;;;28.10;;
4921;SDS011;16625;53.624;10.106;2024-03-22T04:42:25;57.00;;;27.83;;
4921;SDS011;16625;53.624;10.106;2024-03-22T04:44:54;46.53;;;26.00;;
4921;SDS011;16625;53.624;10.106;2024-03-22T04:47:22;54.03;;;28.60;;
4921;SDS011;16625;53.624;10.106;2024-03-22T04:49:48;54.43;;;28.87;;
4921;SDS011;16625;53.624;10.106;2024-03-22T04:52:16;49.57;;;26.50;;
4921;SDS011;16625;53.624;10.106;2024-03-22T04:54:42;49.53;;;27.20;;
4921;SDS011;16625;53.624;10.106;2024-03-22T04:57:14;57.77;;;29.67;;
4921;SDS011;16625;53.624;10.106;2024-03-22T04:59:40;57.90;;;29.30;;
4921;SDS011;16625;53.624;10.106;2024-03-22T05:02:08;55.60;;;28.90;;
4921;SDS011;16625;53.624;10.106;2024-03-22T05:04:34;59.70;;;31.23;;
4921;SDS011;16625;53.624;10.106;2024-03-22T05:07:02;50.40;;;29.33;;
4921;SDS011;16625;53.624;10.106;2024-03-22T05:09:28;53.60;;;28.03;;
4921;SDS011;16625;53.624;10.106;2024-03-22T05:11:57;56.70;;;28.60;;
4921;SDS011;16625;53.624;10.106;2024-03-22T05:14:24;59.83;;;31.27;;
4921;SDS011;16625;53.624;10.106;2024-03-22T05:16:51;55.57;;;29.03;;
4921;SDS011;16625;53.624;10.106;2024-03-22T05:19:17;55.43;;;28.03;;
4921;SDS011;16625;53.624;10.106;2024-03-22T05:21:44;62.27;;;27.60;;
4921;SDS011;16625;53.624;10.106;2024-03-22T05:24:10;53.83;;;28.47;;
4921;SDS011;16625;53.624;10.106;2024-03-22T05:26:36;58.77;;;30.10;;
4921;SDS011;16625;53.624;10.106;2024-03-22T05:29:03;52.47;;;27.67;;
4921;SDS011;16625;53.624;10.106;2024-03-22T05:31:31;54.90;;;28.27;;
4921;SDS011;16625;53.624;10.106;2024-03-22T05:34:10;71.60;;;31.40;;
4921;SDS011;16625;53.624;10.106;2024-03-22T05:36:38;61.00;;;30.57;;
4921;SDS011;16625;53.624;10.106;2024-03-22T05:39:04;53.73;;;28.87;;
4921;SDS011;16625;53.624;10.106;2024-03-22T05:41:33;58.37;;;29.10;;
4921;SDS011;16625;53.624;10.106;2024-03-22T05:43:59;54.90;;;31.17;;
4921;SDS011;16625;53.624;10.106;2024-03-22T05:46:28;56.33;;;30.67;;
4921;SDS011;16625;53.624;10.106;2024-03-22T05:48:55;60.13;;;35.80;;
4921;SDS011;16625;53.624;10.106;2024-03-22T05:51:23;58.60;;;29.87;;
4921;SDS011;16625;53.624;10.106;2024-03-22T05:53:50;66.23;;;31.50;;
4921;SDS011;16625;53.624;10.106;2024-03-22T05:56:17;53.43;;;27.20;;
4921;SDS011;16625;53.624;10.106;2024-03-22T05:58:43;68.67;;;30.90;;
4921;SDS011;16625;53.624;10.106;2024-03-22T06:01:10;58.57;;;25.90;;
4921;SDS011;16625;53.624;10.106;2024-03-22T06:03:36;57.57;;;31.27;;
4921;SDS011;16625;53.624;10.106;2024-03-22T06:06:05;69.43;;;33.40;;
4921;SDS011;16625;53.624;10.106;2024-03-22T06:08:31;56.43;;;30.17;;
4921;SDS011;16625;53.624;10.106;2024-03-22T06:10:59;60.30;;;31.77;;
4921;SDS011;16625;53.624;10.106;2024-03-22T06:13:28;61.83;;;30.90;;
4921;SDS011;16625;53.624;10.106;2024-03-22T06:15:57;57.00;;;30.30;;
4921;SDS011;16625;53.624;10.106;2024-03-22T06:18:22;68.47;;;34.67;;
4921;SDS011;16625;53.624;10.106;2024-03-22T06:20:50;69.20;;;32.00;;
4921;SDS011;16625;53.624;10.106;2024-03-22T06:23:17;58.53;;;31.13;;
4921;SDS011;16625;53.624;10.106;2024-03-22T06:25:50;63.60;;;32.57;;
4921;SDS011;16625;53.624;10.106;2024-03-22T06:28:16;67.83;;;32.50;;
4921;SDS011;16625;53.624;10.106;2024-03-22T06:30:43;64.27;;;29.00;;
4921;SDS011;16625;53.624;10.106;2024-03-22T06:33:09;56.07;;;29.70;;
4921;SDS011;16625;53.624;10.106;2024-03-22T06:35:36;63.97;;;31.60;;
4921;SDS011;16625;53.624;10.106;2024-03-22T06:38:02;59.43;;;28.80;;
4921;SDS011;16625;53.624;10.106;2024-03-22T06:40:31;64.60;;;32.60;;
4921;SDS011;16625;53.624;10.106;2024-03-22T06:42:57;59.43;;;30.63;;
4921;SDS011;16625;53.624;10.106;2024-03-22T06:45:24;58.27;;;30.13;;
4921;SDS011;16625;53.624;10.106;2024-03-22T06:47:50;60.67;;;32.57;;
4921;SDS011;16625;53.624;10.106;2024-03-22T06:50:16;67.00;;;31.17;;
4921;SDS011;16625;53.624;10.106;2024-03-22T06:52:42;61.67;;;31.17;;
4921;SDS011;16625;53.624;10.106;2024-03-22T06:55:09;66.67;;;31.87;;
4921;SDS011;16625;53.624;10.106;2024-03-22T06:57:37;61.80;;;31.77;;
4921;SDS011;16625;53.624;10.106;2024-03-22T07:00:04;63.87;;;31.93;;
4921;SDS011;16625;53.624;10.106;2024-03-22T07:02:34;76.33;;;34.50;;
4921;SDS011;16625;53.624;10.106;2024-03-22T07:05:01;70.63;;;35.70;;
4921;SDS011;16625;53.624;10.106;2024-03-22T07:07:29;70.33;;;34.20;;
4921;SDS011;16625;53.624;10.106;2024-03-22T07:09:56;62.23;;;31.70;;
4921;SDS011;16625;53.624;10.106;2024-03-22T07:12:22;78.97;;;37.23;;
4921;SDS011;16625;53.624;10.106;2024-03-22T07:14:50;70.83;;;32.93;;
4921;SDS011;16625;53.624;10.106;2024-03-22T07:17:16;69.43;;;34.23;;
4921;SDS011;16625;53.624;10.106;2024-03-22T07:19:44;67.23;;;31.20;;
4921;SDS011;16625;53.624;10.106;2024-03-22T07:22:10;62.40;;;32.83;;
4921;SDS011;16625;53.624;10.106;2024-03-22T07:24:37;74.27;;;34.50;;
4921;SDS011;16625;53.624;10.106;2024-03-22T07:27:03;66.63;;;32.57;;
4921;SDS011;16625;53.624;10.106;2024-03-22T07:29:31;61.77;;;30.43;;
4921;SDS011;16625;53.624;10.106;2024-03-22T07:31:58;66.23;;;32.87;;
4921;SDS011;16625;53.624;10.106;2024-03-22T07:34:25;64.27;;;31.90;;
4921;SDS011;16625;53.624;10.106;2024-03-22T07:36:51;66.30;;;32.47;;
4921;SDS011;16625;53.624;10.106;2024-03-22T07:39:18;71.73;;;34.67;;
4921;SDS011;16625;53.624;10.106;2024-03-22T07:41:44;77.73;;;32.83;;
4921;SDS011;16625;53.624;10.106;2024-03-22T07:44:10;65.47;;;32.97;;
4921;SDS011;16625;53.624;10.106;2024-03-22T07:46:36;67.00;;;33.47;;
4921;SDS011;16625;53.624;10.106;2024-03-22T07:49:05;65.40;;;33.43;;
4921;SDS011;16625;53.624;10.106;2024-03-22T07:51:31;60.63;;;34.93;;
4921;SDS011;16625;53.624;10.106;2024-03-22T07:53:58;66.60;;;31.10;;
4921;SDS011;16625;53.624;10.106;2024-03-22T07:56:24;64.70;;;31.47;;
4921;SDS011;16625;53.624;10.106;2024-03-22T07:58:51;70.57;;;34.10;;
4921;SDS011;16625;53.624;10.106;2024-03-22T08:01:17;71.03;;;37.83;;
4921;SDS011;16625;53.624;10.106;2024-03-22T08:03:44;75.00;;;34.23;;
4921;SDS011;16625;53.624;10.106;2024-03-22T08:06:11;74.47;;;37.70;;
4921;SDS011;16625;53.624;10.106;2024-03-22T08:08:38;67.33;;;35.30;;
4921;SDS011;16625;53.624;10.106;2024-03-22T08:11:04;65.43;;;34.40;;
4921;SDS011;16625;53.624;10.106;2024-03-22T08:13:31;68.70;;;36.23;;
4921;SDS011;16625;53.624;10.106;2024-03-22T08:15:57;66.17;;;32.63;;
4921;SDS011;16625;53.624;10.106;2024-03-22T08:18:24;73.57;;;37.00;;
4921;SDS011;16625;53.624;10.106;2024-03-22T08:20:51;80.43;;;35.57;;
4921;SDS011;16625;53.624;10.106;2024-03-22T08:23:19;70.90;;;36.60;;
4921;SDS011;16625;53.624;10.106;2024-03-22T08:25:47;68.50;;;34.47;;
4921;SDS011;16625;53.624;10.106;2024-03-22T08:28:14;84.20;;;38.83;;
4921;SDS011;16625;53.624;10.106;2024-03-22T08:30:42;63.47;;;30.17;;
4921;SDS011;16625;53.624;10.106;2024-03-22T08:33:09;62.27;;;32.77;;
4921;SDS011;16625;53.624;10.106;2024-03-22T08:35:36;71.53;;;34.93;;
4921;SDS011;16625;53.624;10.106;2024-03-22T08:38:03;68.30;;;36.50;;
4921;SDS011;16625;53.624;10.106;2024-03-22T08:40:32;69.70;;;35.30;;
4921;SDS011;16625;53.624;10.106;2024-03-22T08:43:00;66.80;;;34.10;;
4921;SDS011;16625;53.624;10.106;2024-03-22T08:45:26;76.20;;;37.07;;
4921;SDS011;16625;53.624;10.106;2024-03-22T08:47:53;75.13;;;35.13;;
4921;SDS011;16625;53.624;10.106;2024-03-22T08:50:19;69.10;;;35.37;;
4921;SDS011;16625;53.624;10.106;2024-03-22T08:52:47;80.97;;;38.97;;
4921;SDS011;16625;53.624;10.106;2024-03-22T08:55:13;82.67;;;45.30;;
4921;SDS011;16625;53.624;10.106;2024-03-22T08:57:44;77.60;;;38.50;;
4921;SDS011;16625;53.624;10.106;2024-03-22T09:00:10;69.77;;;35.57;;
4921;SDS011;16625;53.624;10.106;2024-03-22T09:02:38;70.03;;;33.47;;
4921;SDS011;16625;53.624;10.106;2024-03-22T09:05:04;75.13;;;35.40;;
4921;SDS011;16625;53.624;10.106;2024-03-22T09:07:33;66.90;;;35.77;;
4921;SDS011;16625;53.624;10.106;2024-03-22T09:09:59;69.50;;;29.27;;
4921;SDS011;16625;53.624;10.106;2024-03-22T09:12:28;66.03;;;29.50;;
4921;SDS011;16625;53.624;10.106;2024-03-22T09:14:57;79.13;;;38.20;;
4921;SDS011;16625;53.624;10.106;2024-03-22T09:17:23;77.07;;;36.30;;
4921;SDS011;16625;53.624;10.106;2024-03-22T09:19:50;80.83;;;37.57;;
4921;SDS011;16625;53.624;10.106;2024-03-22T09:22:17;75.80;;;39.57;;
4921;SDS011;16625;53.624;10.106;2024-03-22T09:24:43;72.53;;;37.07;;
4921;SDS011;16625;53.624;10.106;2024-03-22T09:27:10;73.87;;;38.70;;
4921;SDS011;16625;53.624;10.106;2024-03-22T09:29:37;75.83;;;37.20;;
4921;SDS011;16625;53.624;10.106;2024-03-22T09:32:06;75.90;;;37.40;;
4921;SDS011;16625;53.624;10.106;2024-03-22T09:34:33;73.00;;;37.43;;
4921;SDS011;16625;53.624;10.106;2024-03-22T09:37:01;67.37;;;34.67;;
4921;SDS011;16625;53.624;10.106;2024-03-22T09:39:27;77.23;;;36.93;;
4921;SDS011;16625;53.624;10.106;2024-03-22T09:41:56;70.70;;;37.10;;
4921;SDS011;16625;53.624;10.106;2024-03-22T09:44:22;77.30;;;35.47;;
4921;SDS011;16625;53.624;10.106;2024-03-22T09:46:50;75.90;;;37.37;;
4921;SDS011;16625;53.624;10.106;2024-03-22T09:49:17;80.13;;;37.27;;
4921;SDS011;16625;53.624;10.106;2024-03-22T09:51:44;72.70;;;34.67;;
4921;SDS011;16625;53.624;10.106;2024-03-22T09:54:12;71.83;;;32.50;;
4921;SDS011;16625;53.624;10.106;2024-03-22T09:56:39;78.07;;;33.07;;
4921;SDS011;16625;53.624;10.106;2024-03-22T09:59:05;66.30;;;31.20;;
4921;SDS011;16625;53.624;10.106;2024-03-22T10:01:32;62.77;;;32.90;;
4921;SDS011;16625;53.624;10.106;2024-03-22T10:03:59;52.73;;;29.60;;
4921;SDS011;16625;53.624;10.106;2024-03-22T10:06:28;67.30;;;33.17;;
4921;SDS011;16625;53.624;10.106;2024-03-22T10:08:54;63.97;;;32.30;;
4921;SDS011;16625;53.624;10.106;2024-03-22T10:11:25;67.93;;;29.47;;
4921;SDS011;16625;53.624;10.106;2024-03-22T10:13:51;62.33;;;30.63;;
4921;SDS011;16625;53.624;10.106;2024-03-22T10:16:20;69.20;;;30.93;;
4921;SDS011;16625;53.624;10.106;2024-03-22T10:18:46;77.87;;;34.70;;
4921;SDS011;16625;53.624;10.106;2024-03-22T10:21:16;56.37;;;26.70;;
4921;SDS011;16625;53.624;10.106;2024-03-22T10:23:46;53.80;;;25.87;;
4921;SDS011;16625;53.624;10.106;2024-03-22T10:26:13;48.30;;;23.87;;
4921;SDS011;16625;53.624;10.106;2024-03-22T10:28:46;52.33;;;24.73;;
4921;SDS011;16625;53.624;10.106;2024-03-22T10:31:13;49.33;;;25.77;;
4921;SDS011;16625;53.624;10.106;2024-03-22T10:33:40;58.43;;;26.17;;
4921;SDS011;16625;53.624;10.106;2024-03-22T10:36:07;43.00;;;24.23;;
4921;SDS011;16625;53.624;10.106;2024-03-22T10:38:35;40.23;;;22.10;;
4921;SDS011;16625;53.624;10.106;2024-03-22T10:41:08;52.10;;;25.20;;
4921;SDS011;16625;53.624;10.106;2024-03-22T10:43:34;42.83;;;23.00;;
4921;SDS011;16625;53.624;10.106;2024-03-22T10:46:01;55.33;;;23.70;;
4921;SDS011;16625;53.624;10.106;2024-03-22T10:48:31;36.17;;;19.77;;
4921;SDS011;16625;53.624;10.106;2024-03-22T10:50:59;42.07;;;19.70;;
4921;SDS011;16625;53.624;10.106;2024-03-22T10:53:27;43.13;;;22.03;;
4921;SDS011;16625;53.624;10.106;2024-03-22T10:55:56;35.93;;;19.80;;
4921;SDS011;16625;53.624;10.106;2024-03-22T10:58:27;41.90;;;20.60;;
4921;SDS011;16625;53.624;10.106;2024-03-22T11:00:53;40.97;;;21.00;;
4921;SDS011;16625;53.624;10.106;2024-03-22T11:03:20;33.77;;;17.30;;
4921;SDS011;16625;53.624;10.106;2024-03-22T11:05:48;32.20;;;19.20;;
4921;SDS011;16625;53.624;10.106;2024-03-22T11:08:23;38.43;;;20.03;;
4921;SDS011;16625;53.624;10.106;2024-03-22T11:10:49;30.00;;;16.77;;
4921;SDS011;16625;53.624;10.106;2024-03-22T11:13:16;29.93;;;15.93;;
4921;SDS011;16625;53.624;10.106;2024-03-22T11:15:44;27.80;;;15.63;;
4921;SDS011;16625;53.624;10.106;2024-03-22T11:18:14;26.70;;;17.53;;
4921;SDS011;16625;53.624;10.106;2024-03-22T11:20:40;30.67;;;15.40;;
4921;SDS011;16625;53.624;10.106;2024-03-22T11:23:08;25.77;;;15.40;;
4921;SDS011;16625;53.624;10.106;2024-03-22T11:25:35;25.27;;;14.93;;
4921;SDS011;16625;53.624;10.106;2024-03-22T11:28:02;20.27;;;13.77;;
4921;SDS011;16625;53.624;10.106;2024-03-22T11:30:28;19.97;;;13.27;;
4921;SDS011;16625;53.624;10.106;2024-03-22T11:32:57;27.03;;;14.73;;
4921;SDS011;16625;53.624;10.106;2024-03-22T11:35:26;24.90;;;16.23;;
4921;SDS011;16625;53.624;10.106;2024-03-22T11:37:53;24.77;;;14.70;;
4921;SDS011;16625;53.624;10.106;2024-03-22T11:40:19;23.33;;;13.10;;
4921;SDS011;16625;53.624;10.106;2024-03-22T11:42:47;20.47;;;12.60;;
4921;SDS011;16625;53.624;10.106;2024-03-22T11:45:15;21.70;;;13.07;;
4921;SDS011;16625;53.624;10.106;2024-03-22T11:47:44;15.73;;;8.40;;
4921;SDS011;16625;53.624;10.106;2024-03-22T11:50:13;19.00;;;10.27;;
4921;SDS011;16625;53.624;10.106;2024-03-22T11:52:41;19.50;;;12.73;;
4921;SDS011;16625;53.624;10.106;2024-03-22T11:55:07;22.33;;;10.53;;
4921;SDS011;16625;53.624;10.106;2024-03-22T11:57:34;17.40;;;12.37;;
4921;SDS011;16625;53.624;10.106;2024-03-22T12:00:00;23.00;;;11.87;;
4921;SDS011;16625;53.624;10.106;2024-03-22T12:02:31;20.30;;;11.30;;
4921;SDS011;16625;53.624;10.106;2024-03-22T12:04:57;14.33;;;9.20;;
4921;SDS011;16625;53.624;10.106;2024-03-22T12:07:25;25.73;;;12.23;;
4921;SDS011;16625;53.624;10.106;2024-03-22T12:09:51;15.90;;;10.67;;
4921;SDS011;16625;53.624;10.106;2024-03-22T12:12:18;14.90;;;10.63;;
4921;SDS011;16625;53.624;10.106;2024-03-22T12:14:47;17.20;;;10.13;;
4921;SDS011;16625;53.624;10.106;2024-03-22T12:17:15;14.73;;;9.43;;
4921;SDS011;16625;53.624;10.106;2024-03-22T12:19:41;14.30;;;9.10;;
4921;SDS011;16625;53.624;10.106;2024-03-22T12:22:08;18.87;;;10.57;;
4921;SDS011;16625;53.624;10.106;2024-03-22T12:24:35;14.20;;;9.07;;
4921;SDS011;16625;53.624;10.106;2024-03-22T12:27:03;19.53;;;11.10;;
4921;SDS011;16625;53.624;10.106;2024-03-22T12:29:29;14.30;;;9.77;;
4921;SDS011;16625;53.624;10.106;2024-03-22T12:31:58;13.93;;;8.77;;
4921;SDS011;16625;53.624;10.106;2024-03-22T12:34:26;12.13;;;9.07;;
4921;SDS011;16625;53.624;10.106;2024-03-22T12:36:54;11.23;;;7.77;;
4921;SDS011;16625;53.624;10.106;2024-03-22T12:39:20;10.00;;;7.50;;
4921;SDS011;16625;53.624;10.106;2024-03-22T12:41:48;10.37;;;7.33;;
4921;SDS011;16625;53.624;10.106;2024-03-22T12:44:14;9.57;;;7.23;;
4921;SDS011;16625;53.624;10.106;2024-03-22T12:46:41;10.63;;;7.10;;
4921;SDS011;16625;53.624;10.106;2024-03-22T12:49:09;16.10;;;7.40;;
4921;SDS011;16625;53.624;10.106;2024-03-22T12:51:36;10.40;;;6.50;;
4921;SDS011;16625;53.624;10.106;2024-03-22T12:54:03;16.40;;;6.80;;
4921;SDS011;16625;53.624;10.106;2024-03-22T12:56:31;8.00;;;5.30;;
4921;SDS011;16625;53.624;10.106;2024-03-22T12:58:58;7.90;;;5.30;;
4921;SDS011;16625;53.624;10.106;2024-03-22T13:01:25;5.97;;;4.63;;
4921;SDS011;16625;53.624;10.106;2024-03-22T13:03:52;4.57;;;3.40;;
4921;SDS011;16625;53.624;10.106;2024-03-22T13:06:19;4.63;;;3.53;;
4921;SDS011;16625;53.624;10.106;2024-03-22T13:08:45;4.20;;;3.43;;
4921;SDS011;16625;53.624;10.106;2024-03-22T13:11:13;5.97;;;4.43;;
4921;SDS011;16625;53.624;10.106;2024-03-22T13:13:40;4.13;;;3.60;;
4921;SDS011;16625;53.624;10.106;2024-03-22T13:16:10;4.03;;;3.43;;
4921;SDS011;16625;53.624;10.106;2024-03-22T13:18:39;8.63;;;4.10;;
4921;SDS011;16625;53.624;10.106;2024-03-22T13:21:06;4.70;;;3.60;;
4921;SDS011;16625;53.624;10.106;2024-03-22T13:23:32;4.80;;;3.20;;
4921;SDS011;16625;53.624;10.106;2024-03-22T13:26:02;5.93;;;3.87;;
4921;SDS011;16625;53.624;10.106;2024-03-22T13:28:29;7.03;;;3.93;;
4921;SDS011;16625;53.624;10.106;2024-03-22T13:30:59;4.03;;;3.47;;
4921;SDS011;16625;53.624;10.106;2024-03-22T13:33:27;4.73;;;3.87;;
4921;SDS011;16625;53.624;10.106;2024-03-22T13:35:54;4.40;;;3.40;;
4921;SDS011;16625;53.624;10.106;2024-03-22T13:38:20;3.13;;;2.83;;
4921;SDS011;16625;53.624;10.106;2024-03-22T13:40:58;3.10;;;2.63;;
4921;SDS011;16625;53.624;10.106;2024-03-22T13:43:25;4.53;;;3.47;;
4921;SDS011;16625;53.624;10.106;2024-03-22T13:45:52;4.17;;;3.30;;
4921;SDS011;16625;53.624;10.106;2024-03-22T13:48:19;3.53;;;3.23;;
4921;SDS011;16625;53.624;10.106;2024-03-22T13:50:50;3.50;;;3.20;;
4921;SDS011;16625;53.624;10.106;2024-03-22T13:53:17;3.27;;;2.77;;
4921;SDS011;16625;53.624;10.106;2024-03-22T13:55:43;2.87;;;2.50;;
4921;SDS011;16625;53.624;10.106;2024-03-22T13:58:09;2.53;;;2.13;;
4921;SDS011;16625;53.624;10.106;2024-03-22T14:00:37;3.90;;;2.40;;
4921;SDS011;16625;53.624;10.106;2024-03-22T14:03:03;3.33;;;2.87;;
4921;SDS011;16625;53.624;10.106;2024-03-22T14:05:30;2.73;;;2.50;;
4921;SDS011;16625;53.624;10.106;2024-03-22T14:08:00;3.27;;;2.50;;
4921;SDS011;16625;53.624;10.106;2024-03-22T14:10:28;5.17;;;2.63;;
4921;SDS011;16625;53.624;10.106;2024-03-22T14:12:56;3.10;;;2.70;;
4921;SDS011;16625;53.624;10.106;2024-03-22T14:15:23;3.07;;;2.57;;
4921;SDS011;16625;53.624;10.106;2024-03-22T14:17:50;2.13;;;1.93;;
4921;SDS011;16625;53.624;10.106;2024-03-22T14:20:17;2.67;;;2.23;;
4921;SDS011;16625;53.624;10.106;2024-03-22T14:22:44;2.07;;;1.90;;
4921;SDS011;16625;53.624;10.106;2024-03-22T14:25:13;2.40;;;2.20;;
4921;SDS011;16625;53.624;10.106;2024-03-22T14:27:39;2.43;;;2.20;;
4921;SDS011;16625;53.624;10.106;2024-03-22T14:30:10;3.57;;;2.57;;